sensor_id;sensor_type;location;lat;lon;timestamp;pressure;altitude;pressure_sealevel;temperature;humidity
77706;BME280;66874;45.274;5.880;2023-05-10T00:02:25;98923.78;;;13.69;86.90
77706;BME280;66874;45.274;5.880;2023-05-10T00:04:50;98925.59;;;13.67;86.92
77706;BME280;66874;45.274;5.880;2023-05-10T00:07:15;98924.81;;;13.65;87.01
77706;BME280;66874;45.274;5.880;2023-05-10T00:09:42;98914.22;;;13.66;86.86
77706;BME280;66874;45.274;5.880;2023-05-10T00:12:08;98910.75;;;13.66;86.93
77706;BME280;66874;45.274;5.880;2023-05-10T00:14:33;98905.50;;;13.66;86.77
77706;BME280;66874;45.274;5.880;2023-05-10T00:16:59;98894.13;;;13.65;86.69
77706;BME280;66874;45.274;5.880;2023-05-10T00:19:24;98893.31;;;13.63;86.79
77706;BME280;66874;45.274;5.880;2023-05-10T00:21:49;98896.03;;;13.60;86.59
77706;BME280;66874;45.274;5.880;2023-05-10T00:24:15;98890.91;;;13.57;86.86
77706;BME280;66874;45.274;5.880;2023-05-10T00:26:40;98890.16;;;13.54;86.84
77706;BME280;66874;45.274;5.880;2023-05-10T00:29:07;98889.38;;;13.50;86.86
77706;BME280;66874;45.274;5.880;2023-05-10T00:31:32;98889.41;;;13.49;86.84
77706;BME280;66874;45.274;5.880;2023-05-10T00:33:58;98881.53;;;13.49;86.88
77706;BME280;66874;45.274;5.880;2023-05-10T00:36:23;98886.78;;;13.49;86.90
77706;BME280;66874;45.274;5.880;2023-05-10T00:38:49;98888.53;;;13.50;87.14
77706;BME280;66874;45.274;5.880;2023-05-10T00:41:14;98884.16;;;13.49;87.01
77706;BME280;66874;45.274;5.880;2023-05-10T00:43:40;98888.56;;;13.48;86.97
77706;BME280;66874;45.274;5.880;2023-05-10T00:46:07;98887.69;;;13.49;87.00
77706;BME280;66874;45.274;5.880;2023-05-10T00:48:33;98888.53;;;13.50;86.86
77706;BME280;66874;45.274;5.880;2023-05-10T00:50:58;98891.19;;;13.48;86.67
77706;BME280;66874;45.274;5.880;2023-05-10T00:53:24;98894.75;;;13.47;86.75
77706;BME280;66874;45.274;5.880;2023-05-10T00:55:50;98892.13;;;13.47;86.62
77706;BME280;66874;45.274;5.880;2023-05-10T00:58:16;98900.91;;;13.46;86.70
77706;BME280;66874;45.274;5.880;2023-05-10T01:00:42;98897.53;;;13.42;86.71
77706;BME280;66874;45.274;5.880;2023-05-10T01:03:10;98905.44;;;13.41;86.71
77706;BME280;66874;45.274;5.880;2023-05-10T01:05:37;98896.66;;;13.42;86.85
77706;BME280;66874;45.274;5.880;2023-05-10T01:08:02;98898.44;;;13.41;86.88
77706;BME280;66874;45.274;5.880;2023-05-10T01:10:28;98908.97;;;13.41;86.88
77706;BME280;66874;45.274;5.880;2023-05-10T01:12:54;98909.00;;;13.40;86.83
77706;BME280;66874;45.274;5.880;2023-05-10T01:15:20;98906.34;;;13.40;86.91
77706;BME280;66874;45.274;5.880;2023-05-10T01:17:46;98906.31;;;13.41;86.76
77706;BME280;66874;45.274;5.880;2023-05-10T01:20:12;98908.13;;;13.39;86.81
77706;BME280;66874;45.274;5.880;2023-05-10T01:28:39;98897.88;;;13.32;86.83
77706;BME280;66874;45.274;5.880;2023-05-10T01:34:30;98876.91;;;13.30;86.71
77706;BME280;66874;45.274;5.880;2023-05-10T01:37:09;98889.22;;;13.28;86.81
77706;BME280;66874;45.274;5.880;2023-05-10T01:39:47;98888.38;;;13.28;86.73
77706;BME280;66874;45.274;5.880;2023-05-10T01:42:17;98884.03;;;13.27;86.70
77706;BME280;66874;45.274;5.880;2023-05-10T01:44:47;98883.22;;;13.25;86.67
77706;BME280;66874;45.274;5.880;2023-05-10T01:47:26;98887.69;;;13.21;86.81
77706;BME280;66874;45.274;5.880;2023-05-10T01:49:54;98887.78;;;13.18;86.69
77706;BME280;66874;45.274;5.880;2023-05-10T01:52:27;98887.16;;;13.10;86.63
77706;BME280;66874;45.274;5.880;2023-05-10T01:54:58;98881.06;;;13.09;87.01
77706;BME280;66874;45.274;5.880;2023-05-10T01:57:26;98880.13;;;13.10;86.84
77706;BME280;66874;45.274;5.880;2023-05-10T01:59:53;98875.81;;;13.09;87.00
77706;BME280;66874;45.274;5.880;2023-05-10T02:02:20;98877.56;;;13.09;86.81
77706;BME280;66874;45.274;5.880;2023-05-10T02:04:47;98882.03;;;13.07;86.72
77706;BME280;66874;45.274;5.880;2023-05-10T02:07:15;98883.84;;;13.05;86.63
77706;BME280;66874;45.274;5.880;2023-05-10T02:09:44;98884.00;;;13.00;86.82
77706;BME280;66874;45.274;5.880;2023-05-10T02:12:13;98892.13;;;12.91;86.82
77706;BME280;66874;45.274;5.880;2023-05-10T02:14:39;98886.88;;;12.91;87.23
77706;BME280;66874;45.274;5.880;2023-05-10T02:17:07;98887.03;;;12.86;86.87
77706;BME280;66874;45.274;5.880;2023-05-10T02:19:34;98887.09;;;12.85;87.07
77706;BME280;66874;45.274;5.880;2023-05-10T02:22:03;98896.69;;;12.86;86.96
77706;BME280;66874;45.274;5.880;2023-05-10T02:24:28;98897.63;;;12.83;86.73
77706;BME280;66874;45.274;5.880;2023-05-10T02:26:55;98896.78;;;12.83;86.72
77706;BME280;66874;45.274;5.880;2023-05-10T02:29:23;98899.47;;;12.80;86.73
77706;BME280;66874;45.274;5.880;2023-05-10T02:31:51;98898.63;;;12.79;86.60
77706;BME280;66874;45.274;5.880;2023-05-10T02:34:18;98891.59;;;12.81;86.47
77706;BME280;66874;45.274;5.880;2023-05-10T02:36:45;98896.78;;;12.83;86.50
77706;BME280;66874;45.274;5.880;2023-05-10T02:39:11;98899.53;;;12.78;86.35
77706;BME280;66874;45.274;5.880;2023-05-10T02:41:40;98905.03;;;12.70;86.54
77706;BME280;66874;45.274;5.880;2023-05-10T02:44:07;98892.84;;;12.68;86.52
77706;BME280;66874;45.274;5.880;2023-05-10T02:46:34;98890.28;;;12.66;86.63
77706;BME280;66874;45.274;5.880;2023-05-10T02:49:00;98893.81;;;12.65;86.63
77706;BME280;66874;45.274;5.880;2023-05-10T02:51:28;98891.19;;;12.65;86.56
77706;BME280;66874;45.274;5.880;2023-05-10T02:53:57;98894.53;;;12.70;86.78
77706;BME280;66874;45.274;5.880;2023-05-10T02:56:30;98883.94;;;12.74;86.83
77706;BME280;66874;45.274;5.880;2023-05-10T02:58:56;98883.78;;;12.78;86.73
77706;BME280;66874;45.274;5.880;2023-05-10T03:01:22;98881.94;;;12.82;86.89
77706;BME280;66874;45.274;5.880;2023-05-10T03:03:47;98881.84;;;12.85;86.74
77706;BME280;66874;45.274;5.880;2023-05-10T03:06:13;98883.47;;;12.89;86.85
77706;BME280;66874;45.274;5.880;2023-05-10T03:08:38;98885.25;;;12.88;86.92
77706;BME280;66874;45.274;5.880;2023-05-10T03:12:10;98880.09;;;12.85;86.87
77706;BME280;66874;45.274;5.880;2023-05-10T03:19:56;98881.69;;;12.89;87.11
77706;BME280;66874;45.274;5.880;2023-05-10T03:22:34;98866.81;;;12.90;87.11
77706;BME280;66874;45.274;5.880;2023-05-10T03:25:06;98864.19;;;12.90;87.06
77706;BME280;66874;45.274;5.880;2023-05-10T03:27:32;98872.16;;;12.87;87.04
77706;BME280;66874;45.274;5.880;2023-05-10T03:29:59;98871.34;;;12.85;87.26
77706;BME280;66874;45.274;5.880;2023-05-10T03:32:25;98876.63;;;12.83;87.17
77706;BME280;66874;45.274;5.880;2023-05-10T03:34:52;98875.75;;;12.84;87.31
77706;BME280;66874;45.274;5.880;2023-05-10T03:37:17;98875.69;;;12.86;87.58
77706;BME280;66874;45.274;5.880;2023-05-10T03:39:43;98884.25;;;12.91;87.30
77706;BME280;66874;45.274;5.880;2023-05-10T03:42:08;98881.59;;;12.92;87.47
77706;BME280;66874;45.274;5.880;2023-05-10T03:44:37;98890.44;;;12.90;87.49
77706;BME280;66874;45.274;5.880;2023-05-10T03:47:02;98894.13;;;12.84;87.43
77706;BME280;66874;45.274;5.880;2023-05-10T03:49:27;98890.75;;;12.79;87.47
77706;BME280;66874;45.274;5.880;2023-05-10T03:51:53;98884.75;;;12.76;87.69
77706;BME280;66874;45.274;5.880;2023-05-10T03:54:18;98883.03;;;12.75;87.47
77706;BME280;66874;45.274;5.880;2023-05-10T03:56:43;98889.22;;;12.72;87.52
77706;BME280;66874;45.274;5.880;2023-05-10T03:59:09;98895.38;;;12.71;87.54
77706;BME280;66874;45.274;5.880;2023-05-10T04:01:34;98898.09;;;12.68;87.59
77706;BME280;66874;45.274;5.880;2023-05-10T04:04:00;98894.69;;;12.66;87.63
77706;BME280;66874;45.274;5.880;2023-05-10T04:06:25;98888.50;;;12.67;87.57
77706;BME280;66874;45.274;5.880;2023-05-10T04:08:51;98894.63;;;12.67;87.68
77706;BME280;66874;45.274;5.880;2023-05-10T04:11:16;98894.69;;;12.64;87.60
77706;BME280;66874;45.274;5.880;2023-05-10T04:13:41;98897.38;;;12.63;87.49
77706;BME280;66874;45.274;5.880;2023-05-10T04:16:08;98894.00;;;12.59;87.49
77706;BME280;66874;45.274;5.880;2023-05-10T04:18:33;98895.81;;;12.57;87.63
77706;BME280;66874;45.274;5.880;2023-05-10T04:20:59;98892.31;;;12.57;87.76
77706;BME280;66874;45.274;5.880;2023-05-10T04:23:24;98893.13;;;12.59;87.73
77706;BME280;66874;45.274;5.880;2023-05-10T04:25:49;98894.84;;;12.60;87.73
77706;BME280;66874;45.274;5.880;2023-05-10T04:28:15;98892.22;;;12.60;87.75
77706;BME280;66874;45.274;5.880;2023-05-10T04:30:40;98892.28;;;12.58;87.79
77706;BME280;66874;45.274;5.880;2023-05-10T04:33:06;98898.31;;;12.60;87.65
77706;BME280;66874;45.274;5.880;2023-05-10T04:35:31;98893.13;;;12.59;87.69
77706;BME280;66874;45.274;5.880;2023-05-10T04:37:57;98895.75;;;12.59;87.52
77706;BME280;66874;45.274;5.880;2023-05-10T04:40:22;98898.44;;;12.57;87.52
77706;BME280;66874;45.274;5.880;2023-05-10T04:42:48;98896.75;;;12.55;87.56
77706;BME280;66874;45.274;5.880;2023-05-10T04:45:13;98898.47;;;12.56;87.65
77706;BME280;66874;45.274;5.880;2023-05-10T04:47:42;98899.38;;;12.55;87.65
77706;BME280;66874;45.274;5.880;2023-05-10T04:50:07;98897.56;;;12.57;87.82
77706;BME280;66874;45.274;5.880;2023-05-10T04:52:33;98899.22;;;12.61;87.58
77706;BME280;66874;45.274;5.880;2023-05-10T04:54:58;98912.22;;;12.64;87.69
77706;BME280;66874;45.274;5.880;2023-05-10T04:57:24;98907.81;;;12.64;87.47
77706;BME280;66874;45.274;5.880;2023-05-10T04:59:49;98903.50;;;12.63;87.85
77706;BME280;66874;45.274;5.880;2023-05-10T05:02:15;98908.03;;;12.58;87.57
77706;BME280;66874;45.274;5.880;2023-05-10T05:04:40;98912.34;;;12.61;87.59
77706;BME280;66874;45.274;5.880;2023-05-10T05:07:06;98914.06;;;12.60;87.67
77706;BME280;66874;45.274;5.880;2023-05-10T05:09:31;98907.88;;;12.63;87.75
77706;BME280;66874;45.274;5.880;2023-05-10T05:11:59;98924.47;;;12.65;87.77
77706;BME280;66874;45.274;5.880;2023-05-10T05:14:25;98920.06;;;12.65;87.74
77706;BME280;66874;45.274;5.880;2023-05-10T05:16:51;98924.34;;;12.68;87.68
77706;BME280;66874;45.274;5.880;2023-05-10T05:19:17;98926.09;;;12.67;87.75
77706;BME280;66874;45.274;5.880;2023-05-10T05:21:42;98923.47;;;12.69;87.45
77706;BME280;66874;45.274;5.880;2023-05-10T05:24:08;98911.13;;;12.71;87.65
77706;BME280;66874;45.274;5.880;2023-05-10T05:26:33;98930.28;;;12.75;87.44
77706;BME280;66874;45.274;5.880;2023-05-10T05:28:59;98928.56;;;12.74;87.69
77706;BME280;66874;45.274;5.880;2023-05-10T05:31:24;98926.78;;;12.74;87.60
77706;BME280;66874;45.274;5.880;2023-05-10T05:33:50;98930.25;;;12.76;87.57
77706;BME280;66874;45.274;5.880;2023-05-10T05:36:15;98931.91;;;12.79;87.50
77706;BME280;66874;45.274;5.880;2023-05-10T05:38:40;98935.38;;;12.79;87.55
77706;BME280;66874;45.274;5.880;2023-05-10T05:41:06;98932.66;;;12.82;87.39
77706;BME280;66874;45.274;5.880;2023-05-10T05:43:31;98930.81;;;12.86;87.61
77706;BME280;66874;45.274;5.880;2023-05-10T05:45:57;98934.22;;;12.89;87.48
77706;BME280;66874;45.274;5.880;2023-05-10T05:48:23;98934.06;;;12.94;87.45
77706;BME280;66874;45.274;5.880;2023-05-10T05:50:49;98934.88;;;12.96;87.23
77706;BME280;66874;45.274;5.880;2023-05-10T05:53:14;98932.16;;;12.99;87.16
77706;BME280;66874;45.274;5.880;2023-05-10T05:55:39;98940.91;;;13.00;87.22
77706;BME280;66874;45.274;5.880;2023-05-10T05:58:05;98947.16;;;12.95;87.14
77706;BME280;66874;45.274;5.880;2023-05-10T06:00:30;98947.94;;;12.99;87.07
77706;BME280;66874;45.274;5.880;2023-05-10T06:02:56;98948.72;;;13.01;87.34
77706;BME280;66874;45.274;5.880;2023-05-10T06:05:22;98953.06;;;13.02;87.20
77706;BME280;66874;45.274;5.880;2023-05-10T06:07:47;98952.19;;;13.02;87.05
77706;BME280;66874;45.274;5.880;2023-05-10T06:10:13;98947.00;;;13.00;86.85
77706;BME280;66874;45.274;5.880;2023-05-10T06:12:38;98951.41;;;13.00;86.94
77706;BME280;66874;45.274;5.880;2023-05-10T06:15:04;98947.94;;;12.99;86.94
77706;BME280;66874;45.274;5.880;2023-05-10T06:17:30;98949.63;;;13.00;86.80
77706;BME280;66874;45.274;5.880;2023-05-10T06:19:55;98949.56;;;13.02;86.85
77706;BME280;66874;45.274;5.880;2023-05-10T06:22:21;98955.56;;;13.07;86.68
77706;BME280;66874;45.274;5.880;2023-05-10T06:24:49;98951.19;;;13.06;86.55
77706;BME280;66874;45.274;5.880;2023-05-10T06:27:14;98951.19;;;13.06;86.46
77706;BME280;66874;45.274;5.880;2023-05-10T06:29:40;98952.13;;;13.05;86.39
77706;BME280;66874;45.274;5.880;2023-05-10T06:32:05;98958.28;;;13.04;86.28
77706;BME280;66874;45.274;5.880;2023-05-10T06:34:31;98962.03;;;12.95;86.15
77706;BME280;66874;45.274;5.880;2023-05-10T06:36:56;98957.69;;;12.94;86.04
77706;BME280;66874;45.274;5.880;2023-05-10T06:39:22;98963.09;;;12.89;86.08
77706;BME280;66874;45.274;5.880;2023-05-10T06:41:47;98960.53;;;12.86;85.79
77706;BME280;66874;45.274;5.880;2023-05-10T06:44:12;98961.53;;;12.82;85.64
77706;BME280;66874;45.274;5.880;2023-05-10T06:46:38;98969.56;;;12.78;85.35
77706;BME280;66874;45.274;5.880;2023-05-10T06:49:03;98961.84;;;12.73;85.26
77706;BME280;66874;45.274;5.880;2023-05-10T06:51:29;98966.22;;;12.73;85.12
77706;BME280;66874;45.274;5.880;2023-05-10T06:53:55;98968.03;;;12.70;85.09
77706;BME280;66874;45.274;5.880;2023-05-10T06:56:20;98972.50;;;12.67;84.91
77706;BME280;66874;45.274;5.880;2023-05-10T06:58:49;98965.69;;;12.60;84.62
77706;BME280;66874;45.274;5.880;2023-05-10T07:01:15;98972.81;;;12.56;84.66
77706;BME280;66874;45.274;5.880;2023-05-10T07:03:40;98975.34;;;12.59;84.66
77706;BME280;66874;45.274;5.880;2023-05-10T07:06:06;98981.16;;;12.70;84.52
77706;BME280;66874;45.274;5.880;2023-05-10T07:08:33;98985.94;;;12.86;84.33
77706;BME280;66874;45.274;5.880;2023-05-10T07:11:08;98976.50;;;13.08;84.03
77706;BME280;66874;45.274;5.880;2023-05-10T07:13:33;98983.16;;;13.20;83.63
77706;BME280;66874;45.274;5.880;2023-05-10T07:16:00;98989.06;;;13.28;83.33
77706;BME280;66874;45.274;5.880;2023-05-10T07:18:26;98981.94;;;13.32;83.27
77706;BME280;66874;45.274;5.880;2023-05-10T07:20:51;98986.03;;;13.40;83.08
77706;BME280;66874;45.274;5.880;2023-05-10T07:23:17;98984.25;;;13.42;82.59
77706;BME280;66874;45.274;5.880;2023-05-10T07:25:46;98987.66;;;13.44;82.18
77706;BME280;66874;45.274;5.880;2023-05-10T07:28:13;98992.88;;;13.46;82.04
77706;BME280;66874;45.274;5.880;2023-05-10T07:30:38;98991.06;;;13.48;81.72
77706;BME280;66874;45.274;5.880;2023-05-10T07:33:04;98996.53;;;13.42;81.55
77706;BME280;66874;45.274;5.880;2023-05-10T07:35:29;98997.16;;;13.49;81.59
77706;BME280;66874;45.274;5.880;2023-05-10T07:37:54;99002.16;;;13.56;81.54
77706;BME280;66874;45.274;5.880;2023-05-10T07:40:20;98997.59;;;13.63;81.52
77706;BME280;66874;45.274;5.880;2023-05-10T07:42:45;99002.75;;;13.66;81.41
77706;BME280;66874;45.274;5.880;2023-05-10T07:45:11;99000.22;;;13.63;81.26
77706;BME280;66874;45.274;5.880;2023-05-10T07:47:36;99003.06;;;13.57;80.80
77706;BME280;66874;45.274;5.880;2023-05-10T07:50:02;99000.69;;;13.49;80.17
77706;BME280;66874;45.274;5.880;2023-05-10T07:52:27;99006.44;;;13.32;79.84
77706;BME280;66874;45.274;5.880;2023-05-10T07:54:52;99003.06;;;13.29;79.84
77706;BME280;66874;45.274;5.880;2023-05-10T07:57:18;99004.81;;;13.28;79.83
77706;BME280;66874;45.274;5.880;2023-05-10T07:59:44;99002.19;;;13.28;79.78
77706;BME280;66874;45.274;5.880;2023-05-10T08:02:10;99009.94;;;13.33;79.91
77706;BME280;66874;45.274;5.880;2023-05-10T08:04:35;99001.97;;;13.36;79.94
77706;BME280;66874;45.274;5.880;2023-05-10T08:07:01;99006.88;;;13.47;79.74
77706;BME280;66874;45.274;5.880;2023-05-10T08:09:26;99008.31;;;13.57;79.77
77706;BME280;66874;45.274;5.880;2023-05-10T08:11:52;98998.41;;;13.65;79.67
77706;BME280;66874;45.274;5.880;2023-05-10T08:14:17;99001.72;;;13.70;79.40
77706;BME280;66874;45.274;5.880;2023-05-10T08:16:43;99003.41;;;13.73;79.10
77706;BME280;66874;45.274;5.880;2023-05-10T08:19:08;99004.13;;;13.78;79.02
77706;BME280;66874;45.274;5.880;2023-05-10T08:21:33;99006.66;;;13.81;78.86
77706;BME280;66874;45.274;5.880;2023-05-10T08:23:59;99009.19;;;13.84;78.33
77706;BME280;66874;45.274;5.880;2023-05-10T08:26:24;99005.72;;;13.82;78.14
77706;BME280;66874;45.274;5.880;2023-05-10T08:28:51;99010.72;;;13.89;77.91
77706;BME280;66874;45.274;5.880;2023-05-10T08:31:16;99015.63;;;14.00;77.84
77706;BME280;66874;45.274;5.880;2023-05-10T08:33:41;99006.56;;;14.09;77.52
77706;BME280;66874;45.274;5.880;2023-05-10T08:36:07;99010.78;;;14.14;77.43
77706;BME280;66874;45.274;5.880;2023-05-10T08:38:32;99007.25;;;14.14;77.17
77706;BME280;66874;45.274;5.880;2023-05-10T08:40:58;99011.50;;;14.18;76.88
77706;BME280;66874;45.274;5.880;2023-05-10T08:43:28;99010.28;;;14.28;76.65
77706;BME280;66874;45.274;5.880;2023-05-10T08:45:54;99011.34;;;14.48;76.09
77706;BME280;66874;45.274;5.880;2023-05-10T08:48:23;99007.97;;;14.69;75.63
77706;BME280;66874;45.274;5.880;2023-05-10T08:50:52;99016.28;;;14.82;75.20
77706;BME280;66874;45.274;5.880;2023-05-10T08:53:19;99016.44;;;15.01;74.28
77706;BME280;66874;45.274;5.880;2023-05-10T08:55:46;99009.66;;;15.17;74.05
77706;BME280;66874;45.274;5.880;2023-05-10T08:58:12;99019.84;;;15.26;73.47
77706;BME280;66874;45.274;5.880;2023-05-10T09:00:37;99021.38;;;15.32;73.21
77706;BME280;66874;45.274;5.880;2023-05-10T09:03:04;99020.31;;;15.37;72.92
77706;BME280;66874;45.274;5.880;2023-05-10T09:05:30;99019.50;;;15.35;72.92
77706;BME280;66874;45.274;5.880;2023-05-10T09:07:55;99022.97;;;15.36;72.59
77706;BME280;66874;45.274;5.880;2023-05-10T09:10:21;99029.19;;;15.35;72.67
77706;BME280;66874;45.274;5.880;2023-05-10T09:12:48;99031.31;;;15.47;72.45
77706;BME280;66874;45.274;5.880;2023-05-10T09:15:15;99027.09;;;15.43;71.57
77706;BME280;66874;45.274;5.880;2023-05-10T09:17:42;99030.22;;;15.31;71.68
77706;BME280;66874;45.274;5.880;2023-05-10T09:20:07;99037.91;;;15.13;71.51
77706;BME280;66874;45.274;5.880;2023-05-10T09:22:34;99028.41;;;15.09;71.92
77706;BME280;66874;45.274;5.880;2023-05-10T09:25:06;99030.53;;;15.00;71.86
77706;BME280;66874;45.274;5.880;2023-05-10T09:27:33;99032.44;;;14.96;71.81
77706;BME280;66874;45.274;5.880;2023-05-10T09:29:58;99036.78;;;14.97;71.52
77706;BME280;66874;45.274;5.880;2023-05-10T09:32:38;99037.63;;;14.98;71.41
77706;BME280;66874;45.274;5.880;2023-05-10T09:35:11;99034.69;;;15.05;71.45
77706;BME280;66874;45.274;5.880;2023-05-10T09:37:39;99034.19;;;15.19;71.26
77706;BME280;66874;45.274;5.880;2023-05-10T09:40:16;99039.75;;;15.33;71.06
77706;BME280;66874;45.274;5.880;2023-05-10T09:42:43;99039.75;;;15.57;70.66
77706;BME280;66874;45.274;5.880;2023-05-10T09:45:15;99031.25;;;16.15;69.81
77706;BME280;66874;45.274;5.880;2023-05-10T09:47:41;99029.13;;;16.43;69.21
77706;BME280;66874;45.274;5.880;2023-05-10T09:50:07;99022.53;;;16.74;68.73
77706;BME280;66874;45.274;5.880;2023-05-10T09:55:13;99026.34;;;17.25;67.23
77706;BME280;66874;45.274;5.880;2023-05-10T09:57:39;99024.03;;;17.36;66.90
77706;BME280;66874;45.274;5.880;2023-05-10T10:00:05;99017.00;;;17.73;66.14
77706;BME280;66874;45.274;5.880;2023-05-10T10:02:31;99008.09;;;18.27;65.38
77706;BME280;66874;45.274;5.880;2023-05-10T10:04:57;99013.28;;;18.29;64.45
77706;BME280;66874;45.274;5.880;2023-05-10T10:07:24;99012.78;;;17.69;64.00
77706;BME280;66874;45.274;5.880;2023-05-10T10:09:53;99020.06;;;17.27;64.27
77706;BME280;66874;45.274;5.880;2023-05-10T10:12:19;99020.53;;;16.98;64.87
77706;BME280;66874;45.274;5.880;2023-05-10T10:14:46;99021.09;;;16.86;65.09
77706;BME280;66874;45.274;5.880;2023-05-10T10:17:13;99019.63;;;16.80;65.08
77706;BME280;66874;45.274;5.880;2023-05-10T10:19:39;99025.66;;;16.82;65.08
77706;BME280;66874;45.274;5.880;2023-05-10T10:22:04;99021.31;;;16.81;64.58
77706;BME280;66874;45.274;5.880;2023-05-10T10:24:30;99015.41;;;16.76;64.54
77706;BME280;66874;45.274;5.880;2023-05-10T10:27:01;99012.19;;;16.88;64.45
77706;BME280;66874;45.274;5.880;2023-05-10T10:29:35;99013.56;;;16.97;64.22
77706;BME280;66874;45.274;5.880;2023-05-10T10:34:33;99012.84;;;17.12;64.46
77706;BME280;66874;45.274;5.880;2023-05-10T10:37:04;99004.03;;;17.49;63.79
77706;BME280;66874;45.274;5.880;2023-05-10T10:39:30;99006.22;;;17.58;63.27
77706;BME280;66874;45.274;5.880;2023-05-10T10:41:57;98995.47;;;17.80;62.56
77706;BME280;66874;45.274;5.880;2023-05-10T10:49:42;98993.75;;;18.49;60.38
77706;BME280;66874;45.274;5.880;2023-05-10T10:57:31;98990.41;;;18.28;59.41
77706;BME280;66874;45.274;5.880;2023-05-10T11:02:58;98994.72;;;18.97;59.04
77706;BME280;66874;45.274;5.880;2023-05-10T11:07:59;98990.41;;;18.45;58.99
77706;BME280;66874;45.274;5.880;2023-05-10T11:10:25;98984.47;;;18.40;59.09
77706;BME280;66874;45.274;5.880;2023-05-10T11:13:05;98983.84;;;19.33;56.53
77706;BME280;66874;45.274;5.880;2023-05-10T11:15:34;98975.06;;;19.64;55.72
77706;BME280;66874;45.274;5.880;2023-05-10T11:18:19;98973.28;;;19.65;55.56
77706;BME280;66874;45.274;5.880;2023-05-10T11:20:51;98952.84;;;20.40;55.53
77706;BME280;66874;45.274;5.880;2023-05-10T11:23:16;98955.22;;;21.16;54.00
77706;BME280;66874;45.274;5.880;2023-05-10T11:25:43;98945.56;;;21.69;51.27
77706;BME280;66874;45.274;5.880;2023-05-10T11:28:10;98941.88;;;21.97;51.16
77706;BME280;66874;45.274;5.880;2023-05-10T11:30:38;98948.88;;;22.51;50.24
77706;BME280;66874;45.274;5.880;2023-05-10T11:33:03;98940.81;;;23.02;50.13
77706;BME280;66874;45.274;5.880;2023-05-10T11:35:30;98939.94;;;23.62;48.94
77706;BME280;66874;45.274;5.880;2023-05-10T11:37:55;98939.56;;;23.55;47.87
77706;BME280;66874;45.274;5.880;2023-05-10T11:40:23;98934.72;;;22.37;47.37
77706;BME280;66874;45.274;5.880;2023-05-10T11:42:50;98936.28;;;21.62;48.89
77706;BME280;66874;45.274;5.880;2023-05-10T11:45:16;98941.78;;;21.59;48.88
77706;BME280;66874;45.274;5.880;2023-05-10T11:47:41;98943.41;;;21.20;48.67
77706;BME280;66874;45.274;5.880;2023-05-10T11:50:09;98929.38;;;21.72;49.87
77706;BME280;66874;45.274;5.880;2023-05-10T11:52:36;98934.50;;;22.28;49.48
77706;BME280;66874;45.274;5.880;2023-05-10T11:55:02;98930.44;;;21.69;48.84
77706;BME280;66874;45.274;5.880;2023-05-10T11:59:54;98935.78;;;20.44;48.44
77706;BME280;66874;45.274;5.880;2023-05-10T12:02:20;98941.03;;;20.01;49.90
77706;BME280;66874;45.274;5.880;2023-05-10T12:04:46;98941.00;;;19.87;50.36
77706;BME280;66874;45.274;5.880;2023-05-10T12:07:11;98944.66;;;19.54;50.71
77706;BME280;66874;45.274;5.880;2023-05-10T12:09:37;98949.72;;;19.43;50.72
77706;BME280;66874;45.274;5.880;2023-05-10T12:12:07;98950.16;;;19.35;51.04
77706;BME280;66874;45.274;5.880;2023-05-10T12:14:34;98958.03;;;19.21;52.54
77706;BME280;66874;45.274;5.880;2023-05-10T12:17:00;98954.63;;;18.87;53.84
77706;BME280;66874;45.274;5.880;2023-05-10T12:19:26;98955.03;;;18.80;54.90
77706;BME280;66874;45.274;5.880;2023-05-10T12:21:51;98963.31;;;18.56;55.83
77706;BME280;66874;45.274;5.880;2023-05-10T12:24:17;98960.22;;;18.48;56.72
77706;BME280;66874;45.274;5.880;2023-05-10T12:26:44;98953.13;;;18.48;57.27
77706;BME280;66874;45.274;5.880;2023-05-10T12:29:17;98962.06;;;18.63;57.43
77706;BME280;66874;45.274;5.880;2023-05-10T12:31:57;98960.16;;;18.83;57.45
77706;BME280;66874;45.274;5.880;2023-05-10T12:34:30;98958.03;;;19.21;57.39
77706;BME280;66874;45.274;5.880;2023-05-10T12:36:55;98951.94;;;19.66;57.56
77706;BME280;66874;45.274;5.880;2023-05-10T12:39:21;98954.25;;;20.03;56.51
77706;BME280;66874;45.274;5.880;2023-05-10T12:41:46;98949.41;;;20.09;55.82
77706;BME280;66874;45.274;5.880;2023-05-10T12:44:12;98948.78;;;19.90;55.29
77706;BME280;66874;45.274;5.880;2023-05-10T12:46:37;98945.16;;;19.77;55.50
77706;BME280;66874;45.274;5.880;2023-05-10T12:49:03;98940.66;;;19.31;55.08
77706;BME280;66874;45.274;5.880;2023-05-10T12:51:28;98945.22;;;18.97;55.46
77706;BME280;66874;45.274;5.880;2023-05-10T12:53:53;98948.44;;;18.87;55.79
77706;BME280;66874;45.274;5.880;2023-05-10T12:56:19;98939.38;;;18.91;55.63
77706;BME280;66874;45.274;5.880;2023-05-10T12:58:45;98946.63;;;18.71;55.53
77706;BME280;66874;45.274;5.880;2023-05-10T13:01:14;98947.41;;;18.56;55.60
77706;BME280;66874;45.274;5.880;2023-05-10T13:03:40;98943.28;;;18.35;55.48
77706;BME280;66874;45.274;5.880;2023-05-10T13:06:05;98940.69;;;18.33;55.49
77706;BME280;66874;45.274;5.880;2023-05-10T13:08:31;98942.88;;;18.75;55.44
77706;BME280;66874;45.274;5.880;2023-05-10T13:10:59;98934.06;;;19.38;54.54
77706;BME280;66874;45.274;5.880;2023-05-10T13:13:25;98933.25;;;19.68;53.42
77706;BME280;66874;45.274;5.880;2023-05-10T13:15:50;98929.53;;;20.31;52.52
77706;BME280;66874;45.274;5.880;2023-05-10T13:18:15;98939.03;;;20.78;51.73
77706;BME280;66874;45.274;5.880;2023-05-10T13:20:41;98923.50;;;20.98;50.69
77706;BME280;66874;45.274;5.880;2023-05-10T13:23:08;98926.09;;;21.41;50.69
77706;BME280;66874;45.274;5.880;2023-05-10T13:25:33;98924.97;;;22.11;49.00
77706;BME280;66874;45.274;5.880;2023-05-10T13:27:59;98929.19;;;21.48;48.31
77706;BME280;66874;45.274;5.880;2023-05-10T13:30:24;98931.44;;;20.71;48.61
77706;BME280;66874;45.274;5.880;2023-05-10T13:32:51;98933.00;;;20.03;48.71
77706;BME280;66874;45.274;5.880;2023-05-10T13:35:16;98941.06;;;19.55;49.45
77706;BME280;66874;45.274;5.880;2023-05-10T13:37:42;98944.41;;;19.43;49.87